Aérodrome :
LOGIN :

S'inscrire | Disclaimer

   EN    FR    IT 

 










Légende :    VFR   VFR Marginal   IFR   IFR Intensif   IFR Très Intensif
Visi : 
Plafond : 
>= 8 km
>= 3000ft
5 à 8 km
1000 à 3000 ft
1500m à 5 km
500 à 1000 ft
800 à 1500m
200 à 500 ft
< 800m
< 200 ft
Symboles :   Orages  Brouillard  Fortes neiges  Fortes précipitations  Vent > 20 kt
SIGMETs :   Divers  Orages  Givrage  Turbulence  Onde Orograph.  Cendres Volcan.







- Altitude de l'aérodrome : 13 ft
- Code IATA : SNR
- Voir les cartes d'approche


LFRZ - St-Nazaire

DERNIER METAR :
  • 210600Z AUTO 04005KT 360V070 0500 0400 R25/0700N FG VV/// 09/09 Q1018 TEMPO BKN008 BECMG 8000 NSW

METARs EXPIRÉS :
  • 210530Z AUTO 04007KT 0400 R25/0550N FG VV/// 09/08 Q1018 TEMPO BKN008 BECMG 8000 NSW
  • 210500Z AUTO 03005KT 360V060 0350 R25/0550N FG VV/// 09/08 Q1017 TEMPO 3000 BR BKN008
  • 210430Z AUTO 02004KT 340V050 1300 0550 R25/0700D BCFG VV/// 08/08 Q1017 TEMPO 3000 BR BKN008
  • 210400Z AUTO 35004KT 4900 BR NSC 09/08 Q1017 TEMPO 0300 FG VV///
  • 210330Z AUTO 35004KT 4900 BR NSC 09/08 Q1017 TEMPO 0300 FG VV///

TAF TAF LFRZ
Valide du 21 à 06h jusqu'au 22 à 06h UTC


210500Z 2106/2206 02005KT 3000 BR NSC
TEMPO 2106/2107 0300 FG VV///
BECMG 2107/2109 8000 NSW
PROB30
TEMPO 2107/2109 BKN008
BECMG 2109/2111 SCT020
Pas de NOTAMs connus pour ce terrain.



MET'MAP, la Météo Aéronautique d'un coup d'oeil ! - Copyright ORBIFLY Décembre 2007 - Disclaimer

ORBIFLY MET'MAP TEAM :

Programmation & Développement : Alexandra Zaïnal
Conception & Développement : Baudouin d'Aumeries
Co-Programmation & Développement : Marc-Olivier Méhu
Soutien technique & logistique : Manuel Goepfert

Contact : metmap@orbifly.com




SOURCES & CREDITS :

   NOAA